Champion Jet 1 — 5BFR4 — position and weather

sailwx.info

Track history (hours):
 
Tides and Currents Weather Stations Pressure Air Temp Water Temp Dewpoint Dewpoint Depression Visibility Wind Speed Wind Dir Waves Ship Positions

Champion Jet 1

Last reported at 2018-Jun-21 23:30 UTC. Time now 2018-Jun-21 23:47 UTC.
Position N 37°57' E 023°39'.

Length 86 m; draft 3.7 m.

Type: High speed craft. MMSI: 209440000.

Date/timePositionNaut miles runAvg speedWind from/ knotsBaromVisibWave heightAir tempDewpointWater temp
2018-Jun-21 23:30N 37°57' E 023°39'0 0.0
2018-Jun-21 23:00N 37°57' E 023°39'0 0.0
2018-Jun-21 22:30N 37°57' E 023°39'0 0.0
2018-Jun-21 22:00N 37°57' E 023°39'0 0.0
2018-Jun-21 21:30N 37°57' E 023°39'0 0.0
2018-Jun-21 21:00N 37°57' E 023°39'0 0.0
2018-Jun-21 20:30N 37°57' E 023°39'0 0.0
2018-Jun-21 20:00N 37°57' E 023°39'0 0.0
2018-Jun-21 19:30N 37°57' E 023°39'0 0.0
2018-Jun-21 19:00N 37°57' E 023°39'0 0.0
2018-Jun-21 18:30N 37°57' E 023°39'0 0.0
2018-Jun-21 18:00N 37°57' E 023°39'0 0.0
2018-Jun-21 17:30N 37°57' E 023°39'0 0.0
2018-Jun-21 17:00N 37°57' E 023°39'0 0.0
2018-Jun-21 16:30N 37°57' E 023°39'0 0.0
2018-Jun-21 16:00N 37°57' E 023°39'0 0.0
2018-Jun-21 15:30N 37°57' E 023°39'1 2.7
2018-Jun-21 15:01N 37°56' E 023°37'1530.9
2018-Jun-21 14:30N 37°42' E 023°45'4835.2
2018-Jun-21 13:09N 37°31' E 024°44'535.8
2018-Jun-21 13:00N 37°31' E 024°50'1835.3
2018-Jun-21 12:30N 37°29' E 025°12'612.3
2018-Jun-21 12:00N 37°24' E 025°17'1733.8
2018-Jun-21 11:30N 37°07' E 025°22'9 2.8
2018-Jun-21 08:22N 36°59' E 025°18'821.9
2018-Jun-21 08:00N 37°06' E 025°22'1428.3
2018-Jun-21 07:31N 37°20' E 025°18'815.5
2018-Jun-21 07:00N 37°28' E 025°19'1933.0
2018-Jun-21 06:26N 37°31' E 024°56'5633.5
2018-Jun-21 04:47N 37°39' E 023°46'933.0
2018-Jun-21 04:30N 37°46' E 023°39'1020.9
2018-Jun-21 04:00N 37°57' E 023°39'0 0.0
2018-Jun-21 03:30N 37°57' E 023°39'0 0.0
2018-Jun-21 03:00N 37°57' E 023°39'0 0.0
2018-Jun-21 02:30N 37°57' E 023°39'0 0.0
2018-Jun-21 02:00N 37°57' E 023°39'0 0.0
2018-Jun-21 01:30N 37°57' E 023°39'0 0.0
2018-Jun-21 01:00N 37°57' E 023°39'0 0.0
2018-Jun-21 00:30N 37°57' E 023°39'0 0.0
2018-Jun-21 00:00N 37°57' E 023°39'0 0.0
2018-Jun-20 23:30N 37°57' E 023°39'0 0.0
2018-Jun-20 23:00N 37°57' E 023°39'0 0.0
2018-Jun-20 22:30N 37°57' E 023°39'0 0.0
2018-Jun-20 22:00N 37°57' E 023°39'0 0.0
2018-Jun-20 21:30N 37°57' E 023°39'0 0.0
2018-Jun-20 21:00N 37°57' E 023°39'0 0.0
2018-Jun-20 20:30N 37°57' E 023°39'0 0.0
2018-Jun-20 20:00N 37°57' E 023°39'0 0.0
2018-Jun-20 19:30N 37°57' E 023°39'0 0.0
2018-Jun-20 19:00N 37°57' E 023°39'0 0.0
2018-Jun-20 18:30N 37°57' E 023°39'0 0.0
2018-Jun-20 18:00N 37°57' E 023°39'0 0.0
2018-Jun-20 17:30N 37°57' E 023°39'0 0.0
2018-Jun-20 17:00N 37°57' E 023°39'0 0.0
2018-Jun-20 16:30N 37°57' E 023°39'0 0.0
2018-Jun-20 16:00N 37°57' E 023°39'0 0.0
2018-Jun-20 15:30N 37°57' E 023°39'4 8.5
2018-Jun-20 15:01N 37°52' E 023°39'5632.0
2018-Jun-20 13:16N 37°31' E 024°44'1035.8
2018-Jun-20 13:00N 37°31' E 024°56'1734.7
2018-Jun-20 12:31N 37°28' E 025°17'815.4
2018-Jun-20 12:00N 37°20' E 025°18'1428.7
2018-Jun-20 11:30N 37°06' E 025°22'8 2.7
2018-Jun-20 08:29N 36°59' E 025°18'919.3
2018-Jun-20 08:01N 37°08' E 025°22'1734.4
2018-Jun-20 07:30N 37°24' E 025°17'510.1
2018-Jun-20 07:00N 37°29' E 025°15'1933.7
2018-Jun-20 06:27N 37°32' E 024°51'5432.8
2018-Jun-20 04:49N 37°40' E 023°44'928.8
2018-Jun-20 04:31N 37°47' E 023°38'918.8
2018-Jun-20 04:01N 37°57' E 023°38'0 0.2
2018-Jun-20 03:30N 37°57' E 023°39'0 0.0
2018-Jun-20 03:00N 37°57' E 023°39'0 0.0
2018-Jun-20 02:30N 37°57' E 023°39'0 0.0
2018-Jun-20 02:00N 37°57' E 023°39'0 0.0
2018-Jun-20 01:30N 37°57' E 023°39'0 0.0
2018-Jun-20 01:00N 37°57' E 023°39'0 0.0
2018-Jun-20 00:30N 37°57' E 023°39'0 0.0
2018-Jun-20 00:00N 37°57' E 023°39'0 0.0
2018-Jun-19 23:29N 37°57' E 023°39'0 0.0
2018-Jun-19 23:00N 37°57' E 023°39'0 0.0
2018-Jun-19 22:30N 37°57' E 023°39'0 0.0
2018-Jun-19 22:00N 37°57' E 023°39'0 0.0
2018-Jun-19 21:30N 37°57' E 023°39'0 0.0
2018-Jun-19 21:00N 37°57' E 023°39'0 0.0
2018-Jun-19 20:30N 37°57' E 023°39'0 0.0
2018-Jun-19 20:00N 37°57' E 023°39'0 0.0
2018-Jun-19 19:30N 37°57' E 023°39'0 0.0
2018-Jun-19 19:00N 37°57' E 023°39'0 0.0
2018-Jun-19 18:30N 37°57' E 023°39'0 0.0
2018-Jun-19 18:00N 37°57' E 023°39'0 0.0
2018-Jun-19 17:30N 37°57' E 023°39'0 0.0
2018-Jun-19 17:00N 37°57' E 023°39'0 0.0
2018-Jun-19 16:30N 37°57' E 023°39'0 0.0
2018-Jun-19 16:00N 37°57' E 023°39'0 0.0
2018-Jun-19 15:30N 37°57' E 023°39'3 5.8
2018-Jun-19 15:01N 37°54' E 023°38'5731.3
2018-Jun-19 13:12N 37°32' E 024°44'1035.9
2018-Jun-19 12:56N 37°32' E 024°56'1535.6
2018-Jun-19 12:30N 37°28' E 025°15'612.5
2018-Jun-19 12:00N 37°23' E 025°17'1632.8
2018-Jun-19 11:30N 37°07' E 025°22'8 2.6
2018-Jun-19 08:27N 36°59' E 025°18'818.8
2018-Jun-19 08:00N 37°07' E 025°22'1733.4
2018-Jun-19 07:31N 37°23' E 025°18'611.4
2018-Jun-19 07:01N 37°29' E 025°17'1733.6
2018-Jun-19 06:30N 37°31' E 024°56'5632.4
2018-Jun-19 04:46N 37°39' E 023°46'831.6
2018-Jun-19 04:31N 37°46' E 023°39'1121.0
2018-Jun-19 04:00N 37°57' E 023°39'0 0.0
2018-Jun-19 03:30N 37°57' E 023°39'0 0.0
2018-Jun-19 03:00N 37°57' E 023°39'0 0.0
2018-Jun-19 02:30N 37°57' E 023°39'0 0.0
2018-Jun-19 02:00N 37°57' E 023°39'0 0.0
2018-Jun-19 01:30N 37°57' E 023°39'0 0.0
2018-Jun-19 01:00N 37°57' E 023°39'0 0.0
2018-Jun-19 00:30N 37°57' E 023°39'0 0.0
2018-Jun-19 00:00N 37°57' E 023°39'0 0.0
2018-Jun-18 23:30N 37°57' E 023°39'0 0.0
2018-Jun-18 23:00N 37°57' E 023°39'0 0.0
2018-Jun-18 22:31N 37°57' E 023°39'0 0.0
2018-Jun-18 22:00N 37°57' E 023°39'0 0.0
2018-Jun-18 21:30N 37°57' E 023°39'0 0.0
2018-Jun-18 21:00N 37°57' E 023°39'0 0.0
2018-Jun-18 20:30N 37°57' E 023°39'0 0.0
2018-Jun-18 20:00N 37°57' E 023°39'0 0.0
2018-Jun-18 19:30N 37°57' E 023°39'0 0.0
2018-Jun-18 19:00N 37°57' E 023°39'0 0.0
2018-Jun-18 18:30N 37°57' E 023°39'0 0.0
2018-Jun-18 18:00N 37°57' E 023°39'0 0.0
2018-Jun-18 17:30N 37°57' E 023°39'0 0.0
2018-Jun-18 17:00N 37°57' E 023°39'0 0.0
2018-Jun-18 16:30N 37°57' E 023°39'0 0.0
2018-Jun-18 16:00N 37°57' E 023°39'1 1.8
2018-Jun-18 15:30N 37°56' E 023°37'1122.0
2018-Jun-18 15:01N 37°46' E 023°42'5133.1
2018-Jun-18 13:28N 37°31' E 024°44'1635.1
2018-Jun-18 13:01N 37°30' E 025°04'1224.6
2018-Jun-18 12:31N 37°28' E 025°19'1326.0
2018-Jun-18 12:00N 37°15' E 025°20'917.5
2018-Jun-18 11:30N 37°06' E 025°22'8 2.6
2018-Jun-18 08:29N 36°59' E 025°18'918.8
2018-Jun-18 08:01N 37°07' E 025°22'1733.1
2018-Jun-18 07:31N 37°23' E 025°17'510.7
2018-Jun-18 07:01N 37°29' E 025°16'1933.3
2018-Jun-18 06:26N 37°31' E 024°52'5432.8
2018-Jun-18 04:47N 37°39' E 023°45'932.2
2018-Jun-18 04:31N 37°47' E 023°39'1019.4
2018-Jun-18 04:00N 37°57' E 023°38'0 0.2
2018-Jun-18 03:30N 37°57' E 023°39'0 0.0
2018-Jun-18 03:00N 37°57' E 023°39'0 0.0
2018-Jun-18 02:31N 37°57' E 023°39'0 0.0
2018-Jun-18 02:00N 37°57' E 023°39'0 0.0
2018-Jun-18 01:30N 37°57' E 023°39'0 0.0
2018-Jun-18 01:00N 37°57' E 023°39'0 0.0
2018-Jun-18 00:30N 37°57' E 023°39'0 0.0
2018-Jun-18 00:00N 37°57' E 023°39'0 0.0
2018-Jun-17 23:30N 37°57' E 023°39'0 0.0
2018-Jun-17 23:00N 37°57' E 023°39'0 0.0
2018-Jun-17 22:30N 37°57' E 023°39'0 0.0
2018-Jun-17 22:00N 37°57' E 023°39'0 0.0
2018-Jun-17 21:30N 37°57' E 023°39'0 0.0
2018-Jun-17 21:00N 37°57' E 023°39'0 0.0
2018-Jun-17 20:30N 37°57' E 023°39'0 0.0
2018-Jun-17 20:00N 37°57' E 023°39'0 0.0
2018-Jun-17 19:30N 37°57' E 023°39'0 0.0
2018-Jun-17 19:00N 37°57' E 023°39'0 0.0
2018-Jun-17 18:31N 37°57' E 023°39'0 0.0
2018-Jun-17 18:00N 37°57' E 023°39'0 0.0
2018-Jun-17 17:30N 37°57' E 023°39'0 0.0
2018-Jun-17 16:59N 37°57' E 023°39'0 0.0
2018-Jun-17 16:30N 37°57' E 023°39'1 2.3
2018-Jun-17 16:01N 37°56' E 023°37'1326.7
2018-Jun-17 15:31N 37°44' E 023°44'4932.7
2018-Jun-17 14:00N 37°31' E 024°44'1734.7
2018-Jun-17 13:31N 37°30' E 025°05'1122.8
2018-Jun-17 13:01N 37°28' E 025°19'1529.8
2018-Jun-17 12:31N 37°13' E 025°19'816.3
2018-Jun-17 12:00N 37°05' E 025°20'6 1.8
2018-Jun-17 08:54N 36°59' E 025°19'819.5
2018-Jun-17 08:31N 37°06' E 025°22'1427.3
2018-Jun-17 08:01N 37°20' E 025°18'816.1
2018-Jun-17 07:30N 37°28' E 025°19'815.0
2018-Jun-17 07:00N 37°30' E 025°10'1631.6
2018-Jun-17 06:30N 37°31' E 024°50'5230.4
2018-Jun-17 04:48N 37°39' E 023°45'931.5
2018-Jun-17 04:31N 37°47' E 023°39'1019.2
2018-Jun-17 04:00N 37°57' E 023°39'0 0.0
2018-Jun-17 03:30N 37°57' E 023°39'0 0.0
2018-Jun-17 03:00N 37°57' E 023°39'0 0.0
2018-Jun-17 02:30N 37°57' E 023°39'0 0.0
2018-Jun-17 02:01N 37°57' E 023°39'0 0.0
2018-Jun-17 01:30N 37°57' E 023°39'0 0.0
2018-Jun-17 01:01N 37°57' E 023°39'0 0.0
2018-Jun-17 00:30N 37°57' E 023°39'0 0.0
2018-Jun-16 23:59N 37°57' E 023°39'0 0.0
2018-Jun-16 23:31N 37°57' E 023°39'0 0.0
2018-Jun-16 23:00N 37°57' E 023°39'0 0.0
2018-Jun-16 22:31N 37°57' E 023°39'0 0.0
2018-Jun-16 22:00N 37°57' E 023°39'0 0.0
2018-Jun-16 21:30N 37°57' E 023°39'0 0.0
2018-Jun-16 21:00N 37°57' E 023°39'0 0.0
2018-Jun-16 20:30N 37°57' E 023°39'0 0.0
2018-Jun-16 20:00N 37°57' E 023°39'0 0.0
2018-Jun-16 19:30N 37°57' E 023°39'0 0.0
2018-Jun-16 19:00N 37°57' E 023°39'0 0.0
2018-Jun-16 18:30N 37°57' E 023°39'0 0.0
2018-Jun-16 18:00N 37°57' E 023°39'0 0.0
2018-Jun-16 17:30N 37°57' E 023°39'0 0.0
2018-Jun-16 17:01N 37°57' E 023°39'0 0.0
2018-Jun-16 16:31N 37°57' E 023°39'0 0.0
2018-Jun-16 16:00N 37°57' E 023°39'0 0.0
2018-Jun-16 15:30N 37°57' E 023°39'1 2.8
2018-Jun-16 15:00N 37°56' E 023°37'1427.6
2018-Jun-16 14:31N 37°43' E 023°44'4932.9
2018-Jun-16 13:02N 37°31' E 024°44'134.1
2018-Jun-16 13:01N 37°31' E 024°45'1733.5
2018-Jun-16 12:30N 37°30' E 025°06'1121.7
2018-Jun-16 12:00N 37°28' E 025°19'1326.9
2018-Jun-16 11:30N 37°14' E 025°20'917.2
2018-Jun-16 11:01N 37°06' E 025°22'10418.9
2018-Jun-16 05:31N 35°29' E 024°35'032.9
2018-Jun-16 05:30N 35°29' E 024°35'816.1
2018-Jun-16 05:00N 35°22' E 024°29'0 0.0
2018-Jun-16 04:30N 35°22' E 024°29'3 6.8
2018-Jun-16 04:00N 35°25' E 024°31'101 6.7
2018-Jun-15 12:58N 36°59' E 025°18'1117.1
2018-Jun-15 12:20N 37°10' E 025°15'611.9
2018-Jun-15 11:49N 37°07' E 025°08'1033.5
2018-Jun-15 11:30N 37°16' E 025°13'1325.3
2018-Jun-15 11:00N 37°28' E 025°19'1223.6
2018-Jun-15 10:30N 37°16' E 025°19'1020.2
2018-Jun-15 10:01N 37°06' E 025°22'8 0.4
2018-Jun-14 12:48N 36°59' E 025°18'826.6
2018-Jun-14 12:30N 37°06' E 025°22'1114.6
2018-Jun-14 11:45N 37°05' E 025°08'728.1
2018-Jun-14 11:30N 37°12' E 025°11'1732.5
2018-Jun-14 11:00N 37°27' E 025°19'612.5
2018-Jun-14 10:30N 37°21' E 025°17'1631.0
2018-Jun-14 10:00N 37°06' E 025°22'8 0.4
2018-Jun-13 14:01N 36°59' E 025°18'032.9
2018-Jun-13 14:00N 36°59' E 025°18'918.4
2018-Jun-13 13:30N 37°08' E 025°20'1017.3
2018-Jun-13 12:56N 37°05' E 025°08'1330.1
2018-Jun-13 12:31N 37°17' E 025°14'1223.4
2018-Jun-13 12:00N 37°28' E 025°19'714.8
2018-Jun-13 11:31N 37°21' E 025°18'1326.8
2018-Jun-13 11:00N 37°07' E 025°22'714.0
2018-Jun-13 10:31N 37°01' E 025°18'2 0.1
2018-Jun-12 13:14N 36°59' E 025°18'730.1
2018-Jun-12 13:01N 37°06' E 025°20'612.9
2018-Jun-12 12:31N 37°10' E 025°14'612.0
2018-Jun-12 11:59N 37°07' E 025°08'1634.4
2018-Jun-12 11:30N 37°21' E 025°16'713.6
2018-Jun-12 11:01N 37°28' E 025°20'1326.0
2018-Jun-12 10:30N 37°15' E 025°19'917.9
2018-Jun-12 10:00N 37°06' E 025°21'  
Track history (hours):
 
Tides and Currents Weather Stations Pressure Air Temp Water Temp Dewpoint Dewpoint Depression Visibility Wind Speed Wind Dir Waves Ship Positions

Champion Jet 1

Last reported at 2018-Jun-21 23:30 UTC. Time now 2018-Jun-21 23:47 UTC.
Position N 37°57' E 023°39'.

Length 86 m; draft 3.7 m.

Type: High speed craft. MMSI: 209440000.

Date/timePositionNaut miles runAvg speedWind from/ knotsBaromVisibWave heightAir tempDewpointWater temp
2018-Jun-21 23:30N 37°57' E 023°39'0 0.0
2018-Jun-21 23:00N 37°57' E 023°39'0 0.0
2018-Jun-21 22:30N 37°57' E 023°39'0 0.0
2018-Jun-21 22:00N 37°57' E 023°39'0 0.0
2018-Jun-21 21:30N 37°57' E 023°39'0 0.0
2018-Jun-21 21:00N 37°57' E 023°39'0 0.0
2018-Jun-21 20:30N 37°57' E 023°39'0 0.0
2018-Jun-21 20:00N 37°57' E 023°39'0 0.0
2018-Jun-21 19:30N 37°57' E 023°39'0 0.0
2018-Jun-21 19:00N 37°57' E 023°39'0 0.0
2018-Jun-21 18:30N 37°57' E 023°39'0 0.0
2018-Jun-21 18:00N 37°57' E 023°39'0 0.0
2018-Jun-21 17:30N 37°57' E 023°39'0 0.0
2018-Jun-21 17:00N 37°57' E 023°39'0 0.0
2018-Jun-21 16:30N 37°57' E 023°39'0 0.0
2018-Jun-21 16:00N 37°57' E 023°39'0 0.0
2018-Jun-21 15:30N 37°57' E 023°39'1 2.7
2018-Jun-21 15:01N 37°56' E 023°37'1530.9
2018-Jun-21 14:30N 37°42' E 023°45'4835.2
2018-Jun-21 13:09N 37°31' E 024°44'535.8
2018-Jun-21 13:00N 37°31' E 024°50'1835.3
2018-Jun-21 12:30N 37°29' E 025°12'612.3
2018-Jun-21 12:00N 37°24' E 025°17'1733.8
2018-Jun-21 11:30N 37°07' E 025°22'9 2.8
2018-Jun-21 08:22N 36°59' E 025°18'821.9
2018-Jun-21 08:00N 37°06' E 025°22'1428.3
2018-Jun-21 07:31N 37°20' E 025°18'815.5
2018-Jun-21 07:00N 37°28' E 025°19'1933.0
2018-Jun-21 06:26N 37°31' E 024°56'5633.5
2018-Jun-21 04:47N 37°39' E 023°46'933.0
2018-Jun-21 04:30N 37°46' E 023°39'1020.9
2018-Jun-21 04:00N 37°57' E 023°39'0 0.0
2018-Jun-21 03:30N 37°57' E 023°39'0 0.0
2018-Jun-21 03:00N 37°57' E 023°39'0 0.0
2018-Jun-21 02:30N 37°57' E 023°39'0 0.0
2018-Jun-21 02:00N 37°57' E 023°39'0 0.0
2018-Jun-21 01:30N 37°57' E 023°39'0 0.0
2018-Jun-21 01:00N 37°57' E 023°39'0 0.0
2018-Jun-21 00:30N 37°57' E 023°39'0 0.0
2018-Jun-21 00:00N 37°57' E 023°39'0 0.0
2018-Jun-20 23:30N 37°57' E 023°39'0 0.0
2018-Jun-20 23:00N 37°57' E 023°39'0 0.0
2018-Jun-20 22:30N 37°57' E 023°39'0 0.0
2018-Jun-20 22:00N 37°57' E 023°39'0 0.0
2018-Jun-20 21:30N 37°57' E 023°39'0 0.0
2018-Jun-20 21:00N 37°57' E 023°39'0 0.0
2018-Jun-20 20:30N 37°57' E 023°39'0 0.0
2018-Jun-20 20:00N 37°57' E 023°39'0 0.0
2018-Jun-20 19:30N 37°57' E 023°39'0 0.0
2018-Jun-20 19:00N 37°57' E 023°39'0 0.0
2018-Jun-20 18:30N 37°57' E 023°39'0 0.0
2018-Jun-20 18:00N 37°57' E 023°39'0 0.0
2018-Jun-20 17:30N 37°57' E 023°39'0 0.0
2018-Jun-20 17:00N 37°57' E 023°39'0 0.0
2018-Jun-20 16:30N 37°57' E 023°39'0 0.0
2018-Jun-20 16:00N 37°57' E 023°39'0 0.0
2018-Jun-20 15:30N 37°57' E 023°39'4 8.5
2018-Jun-20 15:01N 37°52' E 023°39'5632.0
2018-Jun-20 13:16N 37°31' E 024°44'1035.8
2018-Jun-20 13:00N 37°31' E 024°56'1734.7
2018-Jun-20 12:31N 37°28' E 025°17'815.4
2018-Jun-20 12:00N 37°20' E 025°18'1428.7
2018-Jun-20 11:30N 37°06' E 025°22'8 2.7
2018-Jun-20 08:29N 36°59' E 025°18'919.3
2018-Jun-20 08:01N 37°08' E 025°22'1734.4
2018-Jun-20 07:30N 37°24' E 025°17'510.1
2018-Jun-20 07:00N 37°29' E 025°15'1933.7
2018-Jun-20 06:27N 37°32' E 024°51'5432.8
2018-Jun-20 04:49N 37°40' E 023°44'928.8
2018-Jun-20 04:31N 37°47' E 023°38'918.8
2018-Jun-20 04:01N 37°57' E 023°38'0 0.2
2018-Jun-20 03:30N 37°57' E 023°39'0 0.0
2018-Jun-20 03:00N 37°57' E 023°39'0 0.0
2018-Jun-20 02:30N 37°57' E 023°39'0 0.0
2018-Jun-20 02:00N 37°57' E 023°39'0 0.0
2018-Jun-20 01:30N 37°57' E 023°39'0 0.0
2018-Jun-20 01:00N 37°57' E 023°39'0 0.0
2018-Jun-20 00:30N 37°57' E 023°39'0 0.0
2018-Jun-20 00:00N 37°57' E 023°39'0 0.0
2018-Jun-19 23:29N 37°57' E 023°39'0 0.0
2018-Jun-19 23:00N 37°57' E 023°39'0 0.0
2018-Jun-19 22:30N 37°57' E 023°39'0 0.0
2018-Jun-19 22:00N 37°57' E 023°39'0 0.0
2018-Jun-19 21:30N 37°57' E 023°39'0 0.0
2018-Jun-19 21:00N 37°57' E 023°39'0 0.0
2018-Jun-19 20:30N 37°57' E 023°39'0 0.0
2018-Jun-19 20:00N 37°57' E 023°39'0 0.0
2018-Jun-19 19:30N 37°57' E 023°39'0 0.0
2018-Jun-19 19:00N 37°57' E 023°39'0 0.0
2018-Jun-19 18:30N 37°57' E 023°39'0 0.0
2018-Jun-19 18:00N 37°57' E 023°39'0 0.0
2018-Jun-19 17:30N 37°57' E 023°39'0 0.0
2018-Jun-19 17:00N 37°57' E 023°39'0 0.0
2018-Jun-19 16:30N 37°57' E 023°39'0 0.0
2018-Jun-19 16:00N 37°57' E 023°39'0 0.0
2018-Jun-19 15:30N 37°57' E 023°39'3 5.8
2018-Jun-19 15:01N 37°54' E 023°38'5731.3
2018-Jun-19 13:12N 37°32' E 024°44'1035.9
2018-Jun-19 12:56N 37°32' E 024°56'1535.6
2018-Jun-19 12:30N 37°28' E 025°15'612.5
2018-Jun-19 12:00N 37°23' E 025°17'1632.8
2018-Jun-19 11:30N 37°07' E 025°22'8 2.6
2018-Jun-19 08:27N 36°59' E 025°18'818.8
2018-Jun-19 08:00N 37°07' E 025°22'1733.4
2018-Jun-19 07:31N 37°23' E 025°18'611.4
2018-Jun-19 07:01N 37°29' E 025°17'1733.6
2018-Jun-19 06:30N 37°31' E 024°56'5632.4
2018-Jun-19 04:46N 37°39' E 023°46'831.6
2018-Jun-19 04:31N 37°46' E 023°39'1121.0
2018-Jun-19 04:00N 37°57' E 023°39'0 0.0
2018-Jun-19 03:30N 37°57' E 023°39'0 0.0
2018-Jun-19 03:00N 37°57' E 023°39'0 0.0
2018-Jun-19 02:30N 37°57' E 023°39'0 0.0
2018-Jun-19 02:00N 37°57' E 023°39'0 0.0
2018-Jun-19 01:30N 37°57' E 023°39'0 0.0
2018-Jun-19 01:00N 37°57' E 023°39'0 0.0
2018-Jun-19 00:30N 37°57' E 023°39'0 0.0
2018-Jun-19 00:00N 37°57' E 023°39'0 0.0
2018-Jun-18 23:30N 37°57' E 023°39'0 0.0
2018-Jun-18 23:00N 37°57' E 023°39'0 0.0
2018-Jun-18 22:31N 37°57' E 023°39'0 0.0
2018-Jun-18 22:00N 37°57' E 023°39'0 0.0
2018-Jun-18 21:30N 37°57' E 023°39'0 0.0
2018-Jun-18 21:00N 37°57' E 023°39'0 0.0
2018-Jun-18 20:30N 37°57' E 023°39'0 0.0
2018-Jun-18 20:00N 37°57' E 023°39'0 0.0
2018-Jun-18 19:30N 37°57' E 023°39'0 0.0
2018-Jun-18 19:00N 37°57' E 023°39'0 0.0
2018-Jun-18 18:30N 37°57' E 023°39'0 0.0
2018-Jun-18 18:00N 37°57' E 023°39'0 0.0
2018-Jun-18 17:30N 37°57' E 023°39'0 0.0
2018-Jun-18 17:00N 37°57' E 023°39'0 0.0
2018-Jun-18 16:30N 37°57' E 023°39'0 0.0
2018-Jun-18 16:00N 37°57' E 023°39'1 1.8
2018-Jun-18 15:30N 37°56' E 023°37'1122.0
2018-Jun-18 15:01N 37°46' E 023°42'5133.1
2018-Jun-18 13:28N 37°31' E 024°44'1635.1
2018-Jun-18 13:01N 37°30' E 025°04'1224.6
2018-Jun-18 12:31N 37°28' E 025°19'1326.0
2018-Jun-18 12:00N 37°15' E 025°20'917.5
2018-Jun-18 11:30N 37°06' E 025°22'8 2.6
2018-Jun-18 08:29N 36°59' E 025°18'918.8
2018-Jun-18 08:01N 37°07' E 025°22'1733.1
2018-Jun-18 07:31N 37°23' E 025°17'510.7
2018-Jun-18 07:01N 37°29' E 025°16'1933.3
2018-Jun-18 06:26N 37°31' E 024°52'5432.8
2018-Jun-18 04:47N 37°39' E 023°45'932.2
2018-Jun-18 04:31N 37°47' E 023°39'1019.4
2018-Jun-18 04:00N 37°57' E 023°38'0 0.2
2018-Jun-18 03:30N 37°57' E 023°39'0 0.0
2018-Jun-18 03:00N 37°57' E 023°39'0 0.0
2018-Jun-18 02:31N 37°57' E 023°39'0 0.0
2018-Jun-18 02:00N 37°57' E 023°39'0 0.0
2018-Jun-18 01:30N 37°57' E 023°39'0 0.0
2018-Jun-18 01:00N 37°57' E 023°39'0 0.0
2018-Jun-18 00:30N 37°57' E 023°39'0 0.0
2018-Jun-18 00:00N 37°57' E 023°39'0 0.0
2018-Jun-17 23:30N 37°57' E 023°39'0 0.0
2018-Jun-17 23:00N 37°57' E 023°39'0 0.0
2018-Jun-17 22:30N 37°57' E 023°39'0 0.0
2018-Jun-17 22:00N 37°57' E 023°39'0 0.0
2018-Jun-17 21:30N 37°57' E 023°39'0 0.0
2018-Jun-17 21:00N 37°57' E 023°39'0 0.0
2018-Jun-17 20:30N 37°57' E 023°39'0 0.0
2018-Jun-17 20:00N 37°57' E 023°39'0 0.0
2018-Jun-17 19:30N 37°57' E 023°39'0 0.0
2018-Jun-17 19:00N 37°57' E 023°39'0 0.0
2018-Jun-17 18:31N 37°57' E 023°39'0 0.0
2018-Jun-17 18:00N 37°57' E 023°39'0 0.0
2018-Jun-17 17:30N 37°57' E 023°39'0 0.0
2018-Jun-17 16:59N 37°57' E 023°39'0 0.0
2018-Jun-17 16:30N 37°57' E 023°39'1 2.3
2018-Jun-17 16:01N 37°56' E 023°37'1326.7
2018-Jun-17 15:31N 37°44' E 023°44'4932.7
2018-Jun-17 14:00N 37°31' E 024°44'1734.7
2018-Jun-17 13:31N 37°30' E 025°05'1122.8
2018-Jun-17 13:01N 37°28' E 025°19'1529.8
2018-Jun-17 12:31N 37°13' E 025°19'816.3
2018-Jun-17 12:00N 37°05' E 025°20'6 1.8
2018-Jun-17 08:54N 36°59' E 025°19'819.5
2018-Jun-17 08:31N 37°06' E 025°22'1427.3
2018-Jun-17 08:01N 37°20' E 025°18'816.1
2018-Jun-17 07:30N 37°28' E 025°19'815.0
2018-Jun-17 07:00N 37°30' E 025°10'1631.6
2018-Jun-17 06:30N 37°31' E 024°50'5230.4
2018-Jun-17 04:48N 37°39' E 023°45'931.5
2018-Jun-17 04:31N 37°47' E 023°39'1019.2
2018-Jun-17 04:00N 37°57' E 023°39'0 0.0
2018-Jun-17 03:30N 37°57' E 023°39'0 0.0
2018-Jun-17 03:00N 37°57' E 023°39'0 0.0
2018-Jun-17 02:30N 37°57' E 023°39'0 0.0
2018-Jun-17 02:01N 37°57' E 023°39'0 0.0
2018-Jun-17 01:30N 37°57' E 023°39'0 0.0
2018-Jun-17 01:01N 37°57' E 023°39'0 0.0
2018-Jun-17 00:30N 37°57' E 023°39'0 0.0
2018-Jun-16 23:59N 37°57' E 023°39'0 0.0
2018-Jun-16 23:31N 37°57' E 023°39'0 0.0
2018-Jun-16 23:00N 37°57' E 023°39'0 0.0
2018-Jun-16 22:31N 37°57' E 023°39'0 0.0
2018-Jun-16 22:00N 37°57' E 023°39'0 0.0
2018-Jun-16 21:30N 37°57' E 023°39'0 0.0
2018-Jun-16 21:00N 37°57' E 023°39'0 0.0
2018-Jun-16 20:30N 37°57' E 023°39'0 0.0
2018-Jun-16 20:00N 37°57' E 023°39'0 0.0
2018-Jun-16 19:30N 37°57' E 023°39'0 0.0
2018-Jun-16 19:00N 37°57' E 023°39'0 0.0
2018-Jun-16 18:30N 37°57' E 023°39'0 0.0
2018-Jun-16 18:00N 37°57' E 023°39'0 0.0
2018-Jun-16 17:30N 37°57' E 023°39'0 0.0
2018-Jun-16 17:01N 37°57' E 023°39'0 0.0
2018-Jun-16 16:31N 37°57' E 023°39'0 0.0
2018-Jun-16 16:00N 37°57' E 023°39'0 0.0
2018-Jun-16 15:30N 37°57' E 023°39'1 2.8
2018-Jun-16 15:00N 37°56' E 023°37'1427.6
2018-Jun-16 14:31N 37°43' E 023°44'4932.9
2018-Jun-16 13:02N 37°31' E 024°44'134.1
2018-Jun-16 13:01N 37°31' E 024°45'1733.5
2018-Jun-16 12:30N 37°30' E 025°06'1121.7
2018-Jun-16 12:00N 37°28' E 025°19'1326.9
2018-Jun-16 11:30N 37°14' E 025°20'917.2
2018-Jun-16 11:01N 37°06' E 025°22'10418.9
2018-Jun-16 05:31N 35°29' E 024°35'032.9
2018-Jun-16 05:30N 35°29' E 024°35'816.1
2018-Jun-16 05:00N 35°22' E 024°29'0 0.0
2018-Jun-16 04:30N 35°22' E 024°29'3 6.8
2018-Jun-16 04:00N 35°25' E 024°31'101 6.7
2018-Jun-15 12:58N 36°59' E 025°18'1117.1
2018-Jun-15 12:20N 37°10' E 025°15'611.9
2018-Jun-15 11:49N 37°07' E 025°08'1033.5
2018-Jun-15 11:30N 37°16' E 025°13'1325.3
2018-Jun-15 11:00N 37°28' E 025°19'1223.6
2018-Jun-15 10:30N 37°16' E 025°19'1020.2
2018-Jun-15 10:01N 37°06' E 025°22'8 0.4
2018-Jun-14 12:48N 36°59' E 025°18'826.6
2018-Jun-14 12:30N 37°06' E 025°22'1114.6
2018-Jun-14 11:45N 37°05' E 025°08'728.1
2018-Jun-14 11:30N 37°12' E 025°11'1732.5
2018-Jun-14 11:00N 37°27' E 025°19'612.5
2018-Jun-14 10:30N 37°21' E 025°17'1631.0
2018-Jun-14 10:00N 37°06' E 025°22'8 0.4
2018-Jun-13 14:01N 36°59' E 025°18'032.9
2018-Jun-13 14:00N 36°59' E 025°18'918.4
2018-Jun-13 13:30N 37°08' E 025°20'1017.3
2018-Jun-13 12:56N 37°05' E 025°08'1330.1
2018-Jun-13 12:31N 37°17' E 025°14'1223.4
2018-Jun-13 12:00N 37°28' E 025°19'714.8
2018-Jun-13 11:31N 37°21' E 025°18'1326.8
2018-Jun-13 11:00N 37°07' E 025°22'714.0
2018-Jun-13 10:31N 37°01' E 025°18'2 0.1
2018-Jun-12 13:14N 36°59' E 025°18'730.1
2018-Jun-12 13:01N 37°06' E 025°20'612.9
2018-Jun-12 12:31N 37°10' E 025°14'612.0
2018-Jun-12 11:59N 37°07' E 025°08'1634.4
2018-Jun-12 11:30N 37°21' E 025°16'713.6
2018-Jun-12 11:01N 37°28' E 025°20'1326.0
2018-Jun-12 10:30N 37°15' E 025°19'917.9
2018-Jun-12 10:00N 37°06' E 025°21'  

Dump ship's entire track history